Briefing drone pour Le rouget

Rechercher une autre localisation

Conditions de vol :


Nous sommes le : Samedi 23 octobre 2021
Il est 18:36 UTC (20:36 LT)

Lever de soleil : 05:50 UTC (07:50 LT)
Coucher de soleil : 17:19 UTC (19:19 LT)

Météo

L'essentiel des conditions de vol

VIGILANCE MÉTÉO FRANCE - Cantal (15)
Pas de vigilances particulieres
METAR de LFLW
LFLW 231830Z AUTO 08005KT CAVOK 07/03 Q1023

Date d'émission: 23/10/2021
Heure d'émission: 18:30 UTC
Vent: 080° pour 5 KT (9 km/h)
Visibilité horizontale: > 10 km
Plafond : Plafond et visibilité OK (CAVOK)
Température: 7 °C
Point de rosée: 3 °C
Humidité: 76%
Pression (QNH): 1023 hPa
Prévision 24h pour Aurillac (12 km)
Vent : 195° pour 2 KT (6 km/h)
Temperature Maxi: 16 °C
Temperature Min: 16 °C
Humidité : 55%
Condition : Ciel dégagé



Warning: count(): Parameter must be an array or an object that implements Countable in /homepages/6/d509196549/htdocs/droneoxygene/briefing.php on line 743
WEBCAM POUR LE ROUGET

Réglementation

Voler en sécurité

CARTES AERONAUTIQUE 1/500.000
CARTES VAC (LFLW)
SUP AIP




Chargement des AIP...
NOTAM (LE ROUGET + Terrain à proximité / FIR )




Chargement des NOTAMS...
CONTACT PREFECTURE 15


Avertissement : Les données mises à disposition sont indicatives. Oxygène Drone ne pourra être tenu responsable de dégâts causés aux biens et aux personnes.